CheckWX is a tool to help pilots better visualize weather data.  It is not intended as a substitute for an official pre-flight weather briefing.

06:00:21 UTC

KARV METAR
Lakeland / Noble F Lee Memorial Field Airport
Minocqua-Woodruff, Wisconsin, USA
Current

25 mins ago

KARV 280535Z AUTO 30003KT 10SM OVC034 M11/M15 A2993 RMK AO2 T11151153
Observed
Feb-28 @ 05:35 UTC
Wind
  • 300° at 3 KTS
Visibility
10 SM
Flight Rules
VFR
Cloud Levels
  • Overcast at 3,400' AGL
Temperature
-12°C / 10°F
Dewpoint
-15°C / 5°F
Humidity
79%
Altimeter
29.93" Hg
Pressure
1013.52 hPa
Previous

45 mins ago

KARV 280515Z AUTO 30004KT 10SM BKN034 M13/M16 A2994 RMK AO2 T11281165
Observed
Feb-28 @ 05:15 UTC
Wind
  • 300° at 4 KTS
Visibility
10 SM
Flight Rules
VFR
Cloud Levels
  • Broken at 3,400' AGL
Temperature
-13°C / 9°F
Dewpoint
-17°C / 1°F
Humidity
72%
Altimeter
29.94" Hg
Pressure
1013.92 hPa
Previous

1 hour ago

KARV 280455Z AUTO 28004KT 10SM SCT032 M13/M16 A2994 RMK AO2 T11281161
Observed
Feb-28 @ 04:55 UTC
Wind
  • 280° at 4 KTS
Visibility
10 SM
Flight Rules
VFR
Cloud Levels
  • Scattered at 3,200' AGL
Temperature
-13°C / 9°F
Dewpoint
-16°C / 3°F
Humidity
78%
Altimeter
29.94" Hg
Pressure
1013.92 hPa